sensor_id;sensor_type;location;lat;lon;timestamp;temperature;humidity
17442;DHT22;8838;50.144;8.176;2023-02-11T00:02:00;2.30;99.90
17442;DHT22;8838;50.144;8.176;2023-02-11T00:04:29;2.30;99.90
17442;DHT22;8838;50.144;8.176;2023-02-11T00:06:56;2.30;99.90
17442;DHT22;8838;50.144;8.176;2023-02-11T00:09:23;2.40;99.90
17442;DHT22;8838;50.144;8.176;2023-02-11T00:11:49;2.40;99.90
17442;DHT22;8838;50.144;8.176;2023-02-11T00:14:16;2.40;99.90
17442;DHT22;8838;50.144;8.176;2023-02-11T00:16:43;2.50;99.90
17442;DHT22;8838;50.144;8.176;2023-02-11T00:19:11;2.60;99.90
17442;DHT22;8838;50.144;8.176;2023-02-11T00:21:39;2.60;99.90
17442;DHT22;8838;50.144;8.176;2023-02-11T00:24:06;2.60;99.90
17442;DHT22;8838;50.144;8.176;2023-02-11T00:26:33;2.60;99.90
17442;DHT22;8838;50.144;8.176;2023-02-11T00:29:01;2.60;99.90
17442;DHT22;8838;50.144;8.176;2023-02-11T00:31:28;2.70;99.90
17442;DHT22;8838;50.144;8.176;2023-02-11T00:33:55;2.70;99.90
17442;DHT22;8838;50.144;8.176;2023-02-11T00:36:25;2.70;99.90
17442;DHT22;8838;50.144;8.176;2023-02-11T00:38:53;2.70;99.90
17442;DHT22;8838;50.144;8.176;2023-02-11T00:41:21;2.80;99.90
17442;DHT22;8838;50.144;8.176;2023-02-11T00:43:48;2.80;99.90
17442;DHT22;8838;50.144;8.176;2023-02-11T00:46:15;2.90;99.90
17442;DHT22;8838;50.144;8.176;2023-02-11T00:48:42;3.00;99.90
17442;DHT22;8838;50.144;8.176;2023-02-11T00:51:09;3.00;99.90
17442;DHT22;8838;50.144;8.176;2023-02-11T00:53:37;3.00;99.90
17442;DHT22;8838;50.144;8.176;2023-02-11T00:56:05;3.10;99.90
17442;DHT22;8838;50.144;8.176;2023-02-11T00:58:32;3.10;99.90
17442;DHT22;8838;50.144;8.176;2023-02-11T01:00:59;3.10;99.90
17442;DHT22;8838;50.144;8.176;2023-02-11T01:03:26;3.10;99.90
17442;DHT22;8838;50.144;8.176;2023-02-11T01:05:53;3.20;99.90
17442;DHT22;8838;50.144;8.176;2023-02-11T01:08:20;3.30;99.90
17442;DHT22;8838;50.144;8.176;2023-02-11T01:10:54;3.30;99.90
17442;DHT22;8838;50.144;8.176;2023-02-11T01:13:22;3.20;99.90
17442;DHT22;8838;50.144;8.176;2023-02-11T01:15:49;3.20;99.90
17442;DHT22;8838;50.144;8.176;2023-02-11T01:18:15;3.20;99.90
17442;DHT22;8838;50.144;8.176;2023-02-11T01:20:42;3.20;99.90
17442;DHT22;8838;50.144;8.176;2023-02-11T01:23:09;3.20;99.90
17442;DHT22;8838;50.144;8.176;2023-02-11T01:25:36;3.20;99.90
17442;DHT22;8838;50.144;8.176;2023-02-11T01:28:10;3.20;99.90
17442;DHT22;8838;50.144;8.176;2023-02-11T01:30:38;3.30;99.90
17442;DHT22;8838;50.144;8.176;2023-02-11T01:33:05;3.30;99.90
17442;DHT22;8838;50.144;8.176;2023-02-11T01:35:31;3.40;99.90
17442;DHT22;8838;50.144;8.176;2023-02-11T01:37:58;3.40;99.90
17442;DHT22;8838;50.144;8.176;2023-02-11T01:40:25;3.40;99.90
17442;DHT22;8838;50.144;8.176;2023-02-11T01:42:52;3.40;99.90
17442;DHT22;8838;50.144;8.176;2023-02-11T01:48:25;3.40;99.90
17442;DHT22;8838;50.144;8.176;2023-02-11T01:50:58;3.40;99.90
17442;DHT22;8838;50.144;8.176;2023-02-11T01:53:28;3.40;99.90
17442;DHT22;8838;50.144;8.176;2023-02-11T01:56:13;3.40;99.90
17442;DHT22;8838;50.144;8.176;2023-02-11T01:59:02;3.40;99.90
17442;DHT22;8838;50.144;8.176;2023-02-11T02:01:33;3.40;99.90
17442;DHT22;8838;50.144;8.176;2023-02-11T02:04:02;3.50;99.90
17442;DHT22;8838;50.144;8.176;2023-02-11T02:06:33;3.50;99.90
17442;DHT22;8838;50.144;8.176;2023-02-11T02:09:03;3.50;99.90
17442;DHT22;8838;50.144;8.176;2023-02-11T02:11:31;3.50;99.90
17442;DHT22;8838;50.144;8.176;2023-02-11T02:13:58;3.50;99.90
17442;DHT22;8838;50.144;8.176;2023-02-11T02:16:29;3.60;99.90
17442;DHT22;8838;50.144;8.176;2023-02-11T02:19:13;3.50;99.90
17442;DHT22;8838;50.144;8.176;2023-02-11T02:22:19;3.50;99.90
17442;DHT22;8838;50.144;8.176;2023-02-11T02:25:18;3.30;99.90
17442;DHT22;8838;50.144;8.176;2023-02-11T02:27:51;3.40;99.90
17442;DHT22;8838;50.144;8.176;2023-02-11T02:30:52;3.40;99.90
17442;DHT22;8838;50.144;8.176;2023-02-11T02:33:35;3.40;99.90
17442;DHT22;8838;50.144;8.176;2023-02-11T02:36:13;3.40;99.90
17442;DHT22;8838;50.144;8.176;2023-02-11T02:38:45;3.30;99.90
17442;DHT22;8838;50.144;8.176;2023-02-11T02:41:16;3.30;99.90
17442;DHT22;8838;50.144;8.176;2023-02-11T02:43:47;3.30;99.90
17442;DHT22;8838;50.144;8.176;2023-02-11T02:46:16;3.40;99.90
17442;DHT22;8838;50.144;8.176;2023-02-11T02:48:46;3.40;99.90
17442;DHT22;8838;50.144;8.176;2023-02-11T02:57:12;3.30;99.90
17442;DHT22;8838;50.144;8.176;2023-02-11T02:59:54;3.30;99.90
17442;DHT22;8838;50.144;8.176;2023-02-11T03:02:26;3.40;99.90
17442;DHT22;8838;50.144;8.176;2023-02-11T03:05:02;3.40;99.90
17442;DHT22;8838;50.144;8.176;2023-02-11T03:07:39;3.30;99.90
17442;DHT22;8838;50.144;8.176;2023-02-11T03:10:09;3.30;99.90
17442;DHT22;8838;50.144;8.176;2023-02-11T03:12:38;3.20;99.90
17442;DHT22;8838;50.144;8.176;2023-02-11T03:15:07;3.10;99.90
17442;DHT22;8838;50.144;8.176;2023-02-11T03:17:35;3.10;99.90
17442;DHT22;8838;50.144;8.176;2023-02-11T03:20:09;3.20;99.90
17442;DHT22;8838;50.144;8.176;2023-02-11T03:22:40;3.20;99.90
17442;DHT22;8838;50.144;8.176;2023-02-11T03:25:08;3.20;99.90
17442;DHT22;8838;50.144;8.176;2023-02-11T03:27:39;3.30;99.90
17442;DHT22;8838;50.144;8.176;2023-02-11T03:30:12;3.30;99.90
17442;DHT22;8838;50.144;8.176;2023-02-11T03:32:44;3.30;99.90
17442;DHT22;8838;50.144;8.176;2023-02-11T03:35:18;3.30;99.90
17442;DHT22;8838;50.144;8.176;2023-02-11T03:37:51;3.30;99.90
17442;DHT22;8838;50.144;8.176;2023-02-11T03:40:20;3.20;99.90
17442;DHT22;8838;50.144;8.176;2023-02-11T03:42:50;3.20;99.90
17442;DHT22;8838;50.144;8.176;2023-02-11T03:45:21;3.30;99.90
17442;DHT22;8838;50.144;8.176;2023-02-11T03:47:52;3.30;99.90
17442;DHT22;8838;50.144;8.176;2023-02-11T03:50:22;3.30;99.90
17442;DHT22;8838;50.144;8.176;2023-02-11T03:52:50;3.30;99.90
17442;DHT22;8838;50.144;8.176;2023-02-11T03:55:19;3.20;99.90
17442;DHT22;8838;50.144;8.176;2023-02-11T03:57:46;3.20;99.90
17442;DHT22;8838;50.144;8.176;2023-02-11T04:00:14;3.20;99.90
17442;DHT22;8838;50.144;8.176;2023-02-11T04:02:41;3.10;99.90
17442;DHT22;8838;50.144;8.176;2023-02-11T04:05:13;3.10;99.90
17442;DHT22;8838;50.144;8.176;2023-02-11T04:07:41;2.90;99.90
17442;DHT22;8838;50.144;8.176;2023-02-11T04:10:10;2.80;99.90
17442;DHT22;8838;50.144;8.176;2023-02-11T04:12:36;2.70;99.90
17442;DHT22;8838;50.144;8.176;2023-02-11T04:15:04;2.80;99.90
17442;DHT22;8838;50.144;8.176;2023-02-11T04:17:31;2.70;99.90
17442;DHT22;8838;50.144;8.176;2023-02-11T04:19:58;2.60;99.90
17442;DHT22;8838;50.144;8.176;2023-02-11T04:22:25;2.40;99.90
17442;DHT22;8838;50.144;8.176;2023-02-11T04:24:53;2.40;99.90
17442;DHT22;8838;50.144;8.176;2023-02-11T04:27:20;2.50;99.90
17442;DHT22;8838;50.144;8.176;2023-02-11T04:29:46;2.50;99.90
17442;DHT22;8838;50.144;8.176;2023-02-11T04:32:13;2.50;99.90
17442;DHT22;8838;50.144;8.176;2023-02-11T04:34:40;2.50;99.90
17442;DHT22;8838;50.144;8.176;2023-02-11T04:37:07;2.50;99.90
17442;DHT22;8838;50.144;8.176;2023-02-11T04:39:34;2.50;99.90
17442;DHT22;8838;50.144;8.176;2023-02-11T04:42:02;2.50;99.90
17442;DHT22;8838;50.144;8.176;2023-02-11T04:44:29;2.50;99.90
17442;DHT22;8838;50.144;8.176;2023-02-11T04:46:56;2.50;99.90
17442;DHT22;8838;50.144;8.176;2023-02-11T04:49:23;2.60;99.90
17442;DHT22;8838;50.144;8.176;2023-02-11T04:51:50;2.60;99.90
17442;DHT22;8838;50.144;8.176;2023-02-11T04:54:17;2.70;99.90
17442;DHT22;8838;50.144;8.176;2023-02-11T04:56:44;2.60;99.90
17442;DHT22;8838;50.144;8.176;2023-02-11T04:59:12;2.60;99.90
17442;DHT22;8838;50.144;8.176;2023-02-11T05:01:39;2.50;99.90
17442;DHT22;8838;50.144;8.176;2023-02-11T05:04:06;2.50;99.90
17442;DHT22;8838;50.144;8.176;2023-02-11T05:06:33;2.40;99.90
17442;DHT22;8838;50.144;8.176;2023-02-11T05:08:59;2.40;99.90
17442;DHT22;8838;50.144;8.176;2023-02-11T05:11:26;2.40;99.90
17442;DHT22;8838;50.144;8.176;2023-02-11T05:13:53;2.40;99.90
17442;DHT22;8838;50.144;8.176;2023-02-11T05:16:21;2.40;99.90
17442;DHT22;8838;50.144;8.176;2023-02-11T05:18:48;2.40;99.90
17442;DHT22;8838;50.144;8.176;2023-02-11T05:21:17;2.40;99.90
17442;DHT22;8838;50.144;8.176;2023-02-11T05:23:44;2.40;99.90
17442;DHT22;8838;50.144;8.176;2023-02-11T05:26:11;2.40;99.90
17442;DHT22;8838;50.144;8.176;2023-02-11T05:28:39;2.40;99.90
17442;DHT22;8838;50.144;8.176;2023-02-11T05:31:07;2.40;99.90
17442;DHT22;8838;50.144;8.176;2023-02-11T05:33:36;2.30;99.90
17442;DHT22;8838;50.144;8.176;2023-02-11T05:36:05;2.20;99.90
17442;DHT22;8838;50.144;8.176;2023-02-11T05:38:33;2.20;99.90
17442;DHT22;8838;50.144;8.176;2023-02-11T05:41:00;2.20;99.90
17442;DHT22;8838;50.144;8.176;2023-02-11T05:43:27;2.20;99.90
17442;DHT22;8838;50.144;8.176;2023-02-11T05:45:54;2.20;99.90
17442;DHT22;8838;50.144;8.176;2023-02-11T05:48:21;2.30;99.90
17442;DHT22;8838;50.144;8.176;2023-02-11T05:50:49;2.30;99.90
17442;DHT22;8838;50.144;8.176;2023-02-11T05:53:16;2.30;99.90
17442;DHT22;8838;50.144;8.176;2023-02-11T05:55:43;2.40;99.90
17442;DHT22;8838;50.144;8.176;2023-02-11T05:58:10;2.40;99.90
17442;DHT22;8838;50.144;8.176;2023-02-11T06:00:37;2.30;99.90
17442;DHT22;8838;50.144;8.176;2023-02-11T06:03:04;2.20;99.90
17442;DHT22;8838;50.144;8.176;2023-02-11T06:05:31;2.20;99.90
17442;DHT22;8838;50.144;8.176;2023-02-11T06:07:59;2.20;99.90
17442;DHT22;8838;50.144;8.176;2023-02-11T06:10:26;2.20;99.90
17442;DHT22;8838;50.144;8.176;2023-02-11T06:12:53;2.10;99.90
17442;DHT22;8838;50.144;8.176;2023-02-11T06:15:20;2.20;99.90
17442;DHT22;8838;50.144;8.176;2023-02-11T06:17:46;2.20;99.90
17442;DHT22;8838;50.144;8.176;2023-02-11T06:20:13;2.20;99.90
17442;DHT22;8838;50.144;8.176;2023-02-11T06:22:40;2.20;99.90
17442;DHT22;8838;50.144;8.176;2023-02-11T06:25:08;2.10;99.90
17442;DHT22;8838;50.144;8.176;2023-02-11T06:27:36;2.10;99.90
17442;DHT22;8838;50.144;8.176;2023-02-11T06:30:04;2.10;99.90
17442;DHT22;8838;50.144;8.176;2023-02-11T06:32:31;2.20;99.90
17442;DHT22;8838;50.144;8.176;2023-02-11T06:34:58;2.20;99.90
17442;DHT22;8838;50.144;8.176;2023-02-11T06:37:24;2.20;99.90
17442;DHT22;8838;50.144;8.176;2023-02-11T06:39:51;2.10;99.90
17442;DHT22;8838;50.144;8.176;2023-02-11T06:42:19;2.10;99.90
17442;DHT22;8838;50.144;8.176;2023-02-11T06:44:46;2.10;99.90
17442;DHT22;8838;50.144;8.176;2023-02-11T06:47:13;2.10;99.90
17442;DHT22;8838;50.144;8.176;2023-02-11T06:49:39;2.00;99.90
17442;DHT22;8838;50.144;8.176;2023-02-11T06:52:06;2.00;99.90
17442;DHT22;8838;50.144;8.176;2023-02-11T06:54:33;1.80;99.90
17442;DHT22;8838;50.144;8.176;2023-02-11T06:57:00;1.80;99.90
17442;DHT22;8838;50.144;8.176;2023-02-11T06:59:28;1.80;99.90
17442;DHT22;8838;50.144;8.176;2023-02-11T07:01:55;1.80;99.90
17442;DHT22;8838;50.144;8.176;2023-02-11T07:04:22;1.80;99.90
17442;DHT22;8838;50.144;8.176;2023-02-11T07:06:49;1.80;99.90
17442;DHT22;8838;50.144;8.176;2023-02-11T07:09:15;1.70;99.90
17442;DHT22;8838;50.144;8.176;2023-02-11T07:11:42;1.80;99.90
17442;DHT22;8838;50.144;8.176;2023-02-11T07:14:09;1.80;99.90
17442;DHT22;8838;50.144;8.176;2023-02-11T07:16:39;1.80;99.90
17442;DHT22;8838;50.144;8.176;2023-02-11T07:19:05;1.80;99.90
17442;DHT22;8838;50.144;8.176;2023-02-11T07:21:33;2.00;99.90
17442;DHT22;8838;50.144;8.176;2023-02-11T07:24:01;2.10;99.90
17442;DHT22;8838;50.144;8.176;2023-02-11T07:26:31;2.10;99.90
17442;DHT22;8838;50.144;8.176;2023-02-11T07:28:58;2.20;99.90
17442;DHT22;8838;50.144;8.176;2023-02-11T07:31:26;2.40;99.90
17442;DHT22;8838;50.144;8.176;2023-02-11T07:33:56;2.50;99.90
17442;DHT22;8838;50.144;8.176;2023-02-11T07:36:24;2.60;99.90
17442;DHT22;8838;50.144;8.176;2023-02-11T07:38:52;2.60;99.90
17442;DHT22;8838;50.144;8.176;2023-02-11T07:41:21;2.70;99.90
17442;DHT22;8838;50.144;8.176;2023-02-11T07:43:49;2.70;99.90
17442;DHT22;8838;50.144;8.176;2023-02-11T07:46:18;2.80;99.90
17442;DHT22;8838;50.144;8.176;2023-02-11T07:48:45;2.80;99.90
17442;DHT22;8838;50.144;8.176;2023-02-11T07:51:15;2.80;99.90
17442;DHT22;8838;50.144;8.176;2023-02-11T07:53:42;2.90;99.90
17442;DHT22;8838;50.144;8.176;2023-02-11T07:56:11;3.00;99.90
17442;DHT22;8838;50.144;8.176;2023-02-11T07:58:38;3.00;99.90
17442;DHT22;8838;50.144;8.176;2023-02-11T08:01:08;3.10;99.90
17442;DHT22;8838;50.144;8.176;2023-02-11T08:03:36;3.10;99.90
17442;DHT22;8838;50.144;8.176;2023-02-11T08:06:03;3.20;99.90
17442;DHT22;8838;50.144;8.176;2023-02-11T08:08:32;3.20;99.90
17442;DHT22;8838;50.144;8.176;2023-02-11T08:11:05;3.20;99.90
17442;DHT22;8838;50.144;8.176;2023-02-11T08:13:32;3.10;99.90
17442;DHT22;8838;50.144;8.176;2023-02-11T08:15:58;3.00;99.90
17442;DHT22;8838;50.144;8.176;2023-02-11T08:18:26;3.10;99.90
17442;DHT22;8838;50.144;8.176;2023-02-11T08:20:52;3.20;99.90
17442;DHT22;8838;50.144;8.176;2023-02-11T08:23:19;3.30;99.90
17442;DHT22;8838;50.144;8.176;2023-02-11T08:25:48;3.30;99.90
17442;DHT22;8838;50.144;8.176;2023-02-11T08:28:14;3.30;99.90
17442;DHT22;8838;50.144;8.176;2023-02-11T08:30:41;3.20;99.90
17442;DHT22;8838;50.144;8.176;2023-02-11T08:33:08;3.30;99.90
17442;DHT22;8838;50.144;8.176;2023-02-11T08:35:35;3.30;99.90
17442;DHT22;8838;50.144;8.176;2023-02-11T08:38:04;3.40;99.90
17442;DHT22;8838;50.144;8.176;2023-02-11T08:40:31;3.40;99.90
17442;DHT22;8838;50.144;8.176;2023-02-11T08:42:59;3.50;99.90
17442;DHT22;8838;50.144;8.176;2023-02-11T08:45:26;3.50;99.90
17442;DHT22;8838;50.144;8.176;2023-02-11T08:47:53;3.50;99.90
17442;DHT22;8838;50.144;8.176;2023-02-11T08:50:19;3.50;99.90
17442;DHT22;8838;50.144;8.176;2023-02-11T08:52:46;3.50;99.90
17442;DHT22;8838;50.144;8.176;2023-02-11T08:55:13;3.50;99.90
17442;DHT22;8838;50.144;8.176;2023-02-11T08:57:41;3.70;99.90
17442;DHT22;8838;50.144;8.176;2023-02-11T09:00:10;3.70;99.90
17442;DHT22;8838;50.144;8.176;2023-02-11T09:02:37;3.80;99.90
17442;DHT22;8838;50.144;8.176;2023-02-11T09:05:05;3.90;99.90
17442;DHT22;8838;50.144;8.176;2023-02-11T09:07:31;4.00;99.90
17442;DHT22;8838;50.144;8.176;2023-02-11T09:09:58;3.90;99.90
17442;DHT22;8838;50.144;8.176;2023-02-11T09:12:25;3.90;99.90
17442;DHT22;8838;50.144;8.176;2023-02-11T09:14:52;4.00;99.90
17442;DHT22;8838;50.144;8.176;2023-02-11T09:17:20;4.00;99.90
17442;DHT22;8838;50.144;8.176;2023-02-11T09:19:47;4.10;99.90
17442;DHT22;8838;50.144;8.176;2023-02-11T09:22:14;4.10;99.90
17442;DHT22;8838;50.144;8.176;2023-02-11T09:24:41;4.10;99.90
17442;DHT22;8838;50.144;8.176;2023-02-11T09:27:07;4.10;99.90
17442;DHT22;8838;50.144;8.176;2023-02-11T09:29:34;4.10;99.90
17442;DHT22;8838;50.144;8.176;2023-02-11T09:32:01;4.10;99.90
17442;DHT22;8838;50.144;8.176;2023-02-11T09:34:30;4.10;99.90
17442;DHT22;8838;50.144;8.176;2023-02-11T09:36:57;4.10;99.90
17442;DHT22;8838;50.144;8.176;2023-02-11T09:39:24;4.20;99.90
17442;DHT22;8838;50.144;8.176;2023-02-11T09:45:18;4.20;99.90
17442;DHT22;8838;50.144;8.176;2023-02-11T09:47:49;4.30;99.90
17442;DHT22;8838;50.144;8.176;2023-02-11T09:50:23;4.30;99.90
17442;DHT22;8838;50.144;8.176;2023-02-11T09:52:54;4.20;99.90
17442;DHT22;8838;50.144;8.176;2023-02-11T09:55:26;4.30;99.90
17442;DHT22;8838;50.144;8.176;2023-02-11T09:57:55;4.30;99.90
17442;DHT22;8838;50.144;8.176;2023-02-11T10:00:25;4.30;99.90
17442;DHT22;8838;50.144;8.176;2023-02-11T10:03:07;4.30;99.90
17442;DHT22;8838;50.144;8.176;2023-02-11T10:05:55;4.30;99.90
17442;DHT22;8838;50.144;8.176;2023-02-11T10:08:30;4.40;99.90
17442;DHT22;8838;50.144;8.176;2023-02-11T10:11:05;4.40;99.90
17442;DHT22;8838;50.144;8.176;2023-02-11T10:13:46;4.40;99.90
17442;DHT22;8838;50.144;8.176;2023-02-11T10:16:28;4.30;99.90
17442;DHT22;8838;50.144;8.176;2023-02-11T10:19:12;4.30;99.90
17442;DHT22;8838;50.144;8.176;2023-02-11T10:21:51;4.30;99.90
17442;DHT22;8838;50.144;8.176;2023-02-11T10:24:23;4.40;99.90
17442;DHT22;8838;50.144;8.176;2023-02-11T10:26:52;4.50;99.90
17442;DHT22;8838;50.144;8.176;2023-02-11T10:29:30;4.70;99.90
17442;DHT22;8838;50.144;8.176;2023-02-11T10:31:59;4.70;99.90
17442;DHT22;8838;50.144;8.176;2023-02-11T10:34:27;4.70;99.90
17442;DHT22;8838;50.144;8.176;2023-02-11T10:36:55;4.80;99.90
17442;DHT22;8838;50.144;8.176;2023-02-11T10:39:25;4.80;99.90
17442;DHT22;8838;50.144;8.176;2023-02-11T10:41:53;4.90;99.90
17442;DHT22;8838;50.144;8.176;2023-02-11T10:44:25;4.90;99.90
17442;DHT22;8838;50.144;8.176;2023-02-11T10:46:53;4.90;99.90
17442;DHT22;8838;50.144;8.176;2023-02-11T10:49:34;5.00;99.90
17442;DHT22;8838;50.144;8.176;2023-02-11T10:52:29;4.90;99.90
17442;DHT22;8838;50.144;8.176;2023-02-11T10:54:59;4.90;99.90
17442;DHT22;8838;50.144;8.176;2023-02-11T10:57:29;4.80;99.90
17442;DHT22;8838;50.144;8.176;2023-02-11T10:59:58;4.70;99.90
17442;DHT22;8838;50.144;8.176;2023-02-11T11:02:29;4.70;99.90
17442;DHT22;8838;50.144;8.176;2023-02-11T11:05:02;4.60;99.90
17442;DHT22;8838;50.144;8.176;2023-02-11T11:07:32;4.70;99.90
17442;DHT22;8838;50.144;8.176;2023-02-11T11:10:01;4.70;99.90
17442;DHT22;8838;50.144;8.176;2023-02-11T11:12:32;4.70;99.90
17442;DHT22;8838;50.144;8.176;2023-02-11T11:15:01;4.70;99.90
17442;DHT22;8838;50.144;8.176;2023-02-11T11:17:29;4.70;99.90
17442;DHT22;8838;50.144;8.176;2023-02-11T11:20:14;4.60;99.90
17442;DHT22;8838;50.144;8.176;2023-02-11T11:22:43;4.60;99.90
17442;DHT22;8838;50.144;8.176;2023-02-11T11:25:22;4.60;99.90
17442;DHT22;8838;50.144;8.176;2023-02-11T11:27:50;4.60;99.90
17442;DHT22;8838;50.144;8.176;2023-02-11T11:30:18;4.60;99.90
17442;DHT22;8838;50.144;8.176;2023-02-11T11:32:45;4.70;99.90
17442;DHT22;8838;50.144;8.176;2023-02-11T11:35:25;4.80;99.90
17442;DHT22;8838;50.144;8.176;2023-02-11T11:37:56;4.70;99.90
17442;DHT22;8838;50.144;8.176;2023-02-11T11:40:26;4.60;99.90
17442;DHT22;8838;50.144;8.176;2023-02-11T11:43:16;4.70;99.90
17442;DHT22;8838;50.144;8.176;2023-02-11T11:45:55;4.70;99.90
17442;DHT22;8838;50.144;8.176;2023-02-11T11:48:25;4.70;99.90
17442;DHT22;8838;50.144;8.176;2023-02-11T11:50:54;4.80;99.90
17442;DHT22;8838;50.144;8.176;2023-02-11T11:53:28;4.90;99.90
17442;DHT22;8838;50.144;8.176;2023-02-11T11:56:00;4.90;99.90
17442;DHT22;8838;50.144;8.176;2023-02-11T11:58:30;4.90;99.90
17442;DHT22;8838;50.144;8.176;2023-02-11T12:01:10;5.00;99.90
17442;DHT22;8838;50.144;8.176;2023-02-11T12:04:18;5.00;99.90
17442;DHT22;8838;50.144;8.176;2023-02-11T12:07:01;5.00;99.90
17442;DHT22;8838;50.144;8.176;2023-02-11T12:09:44;5.00;99.90
17442;DHT22;8838;50.144;8.176;2023-02-11T12:12:26;5.10;99.90
17442;DHT22;8838;50.144;8.176;2023-02-11T12:15:07;5.10;99.90
17442;DHT22;8838;50.144;8.176;2023-02-11T12:17:50;5.10;99.90
17442;DHT22;8838;50.144;8.176;2023-02-11T12:20:28;5.20;99.90
17442;DHT22;8838;50.144;8.176;2023-02-11T12:23:18;5.30;99.90
17442;DHT22;8838;50.144;8.176;2023-02-11T12:25:57;5.40;99.90
17442;DHT22;8838;50.144;8.176;2023-02-11T12:28:34;5.40;99.90
17442;DHT22;8838;50.144;8.176;2023-02-11T12:31:14;5.50;99.90
17442;DHT22;8838;50.144;8.176;2023-02-11T12:33:55;5.40;99.90
17442;DHT22;8838;50.144;8.176;2023-02-11T12:36:35;5.50;99.90
17442;DHT22;8838;50.144;8.176;2023-02-11T12:39:18;5.60;99.90
17442;DHT22;8838;50.144;8.176;2023-02-11T12:42:05;5.60;99.90
17442;DHT22;8838;50.144;8.176;2023-02-11T12:45:08;5.60;99.90
17442;DHT22;8838;50.144;8.176;2023-02-11T12:47:45;5.60;99.90
17442;DHT22;8838;50.144;8.176;2023-02-11T12:50:21;5.60;99.90
17442;DHT22;8838;50.144;8.176;2023-02-11T12:53:02;5.60;99.90
17442;DHT22;8838;50.144;8.176;2023-02-11T12:55:35;5.60;99.90
17442;DHT22;8838;50.144;8.176;2023-02-11T12:58:04;5.60;99.90
17442;DHT22;8838;50.144;8.176;2023-02-11T13:00:41;5.60;99.90
17442;DHT22;8838;50.144;8.176;2023-02-11T13:03:12;5.60;99.90
17442;DHT22;8838;50.144;8.176;2023-02-11T13:05:45;5.70;99.90
17442;DHT22;8838;50.144;8.176;2023-02-11T13:08:16;5.70;99.90
17442;DHT22;8838;50.144;8.176;2023-02-11T13:10:48;5.80;99.90
17442;DHT22;8838;50.144;8.176;2023-02-11T13:13:18;5.80;99.90
17442;DHT22;8838;50.144;8.176;2023-02-11T13:15:50;5.80;99.90
17442;DHT22;8838;50.144;8.176;2023-02-11T13:18:31;5.70;99.90
17442;DHT22;8838;50.144;8.176;2023-02-11T13:21:15;5.60;99.90
17442;DHT22;8838;50.144;8.176;2023-02-11T13:23:45;5.60;99.90
17442;DHT22;8838;50.144;8.176;2023-02-11T13:26:19;5.60;99.90
17442;DHT22;8838;50.144;8.176;2023-02-11T13:28:54;5.70;99.90
17442;DHT22;8838;50.144;8.176;2023-02-11T13:31:23;5.70;99.90
17442;DHT22;8838;50.144;8.176;2023-02-11T13:33:51;5.80;99.90
17442;DHT22;8838;50.144;8.176;2023-02-11T13:36:23;5.80;99.90
17442;DHT22;8838;50.144;8.176;2023-02-11T13:38:59;5.90;99.90
17442;DHT22;8838;50.144;8.176;2023-02-11T13:41:32;5.90;99.90
17442;DHT22;8838;50.144;8.176;2023-02-11T13:44:20;5.80;99.90
17442;DHT22;8838;50.144;8.176;2023-02-11T13:46:59;5.70;99.90
17442;DHT22;8838;50.144;8.176;2023-02-11T13:49:31;5.70;99.90
17442;DHT22;8838;50.144;8.176;2023-02-11T13:52:02;5.70;99.90
17442;DHT22;8838;50.144;8.176;2023-02-11T13:54:33;5.80;99.90
17442;DHT22;8838;50.144;8.176;2023-02-11T13:57:28;5.70;99.90
17442;DHT22;8838;50.144;8.176;2023-02-11T13:59:58;5.70;99.90
17442;DHT22;8838;50.144;8.176;2023-02-11T14:02:28;5.70;99.90
17442;DHT22;8838;50.144;8.176;2023-02-11T14:05:23;5.70;99.90
17442;DHT22;8838;50.144;8.176;2023-02-11T14:08:14;5.70;99.90
17442;DHT22;8838;50.144;8.176;2023-02-11T14:11:00;5.70;99.90
17442;DHT22;8838;50.144;8.176;2023-02-11T14:13:28;5.80;99.90
17442;DHT22;8838;50.144;8.176;2023-02-11T14:16:07;5.80;99.90
17442;DHT22;8838;50.144;8.176;2023-02-11T14:18:59;5.80;99.90
17442;DHT22;8838;50.144;8.176;2023-02-11T14:21:34;5.80;99.90
17442;DHT22;8838;50.144;8.176;2023-02-11T14:24:42;5.80;99.90
17442;DHT22;8838;50.144;8.176;2023-02-11T14:27:16;5.80;99.90
17442;DHT22;8838;50.144;8.176;2023-02-11T14:29:53;5.80;99.90
17442;DHT22;8838;50.144;8.176;2023-02-11T14:32:37;5.80;99.90
17442;DHT22;8838;50.144;8.176;2023-02-11T14:35:11;5.80;99.90
17442;DHT22;8838;50.144;8.176;2023-02-11T14:37:47;5.80;99.90
17442;DHT22;8838;50.144;8.176;2023-02-11T14:40:25;5.80;99.90
17442;DHT22;8838;50.144;8.176;2023-02-11T14:42:53;5.80;99.90
17442;DHT22;8838;50.144;8.176;2023-02-11T14:45:23;5.80;99.90
17442;DHT22;8838;50.144;8.176;2023-02-11T14:47:56;5.90;99.90
17442;DHT22;8838;50.144;8.176;2023-02-11T14:50:27;5.80;99.90
17442;DHT22;8838;50.144;8.176;2023-02-11T14:53:00;5.80;99.90
17442;DHT22;8838;50.144;8.176;2023-02-11T14:55:30;5.80;99.90
17442;DHT22;8838;50.144;8.176;2023-02-11T14:58:13;5.90;99.90
17442;DHT22;8838;50.144;8.176;2023-02-11T15:00:52;5.90;99.90
17442;DHT22;8838;50.144;8.176;2023-02-11T15:03:32;6.00;99.90
17442;DHT22;8838;50.144;8.176;2023-02-11T15:06:02;6.00;99.90
17442;DHT22;8838;50.144;8.176;2023-02-11T15:08:31;6.00;99.90
17442;DHT22;8838;50.144;8.176;2023-02-11T15:11:00;6.00;99.90
17442;DHT22;8838;50.144;8.176;2023-02-11T15:13:30;6.00;99.90
17442;DHT22;8838;50.144;8.176;2023-02-11T15:16:02;6.00;99.90
17442;DHT22;8838;50.144;8.176;2023-02-11T15:18:35;6.00;99.90
17442;DHT22;8838;50.144;8.176;2023-02-11T15:21:03;5.90;99.90
17442;DHT22;8838;50.144;8.176;2023-02-11T15:23:31;6.00;99.90
17442;DHT22;8838;50.144;8.176;2023-02-11T15:25:58;5.90;99.90
17442;DHT22;8838;50.144;8.176;2023-02-11T15:28:31;5.90;99.90
17442;DHT22;8838;50.144;8.176;2023-02-11T15:31:00;5.90;99.90
17442;DHT22;8838;50.144;8.176;2023-02-11T15:33:28;5.90;99.90
17442;DHT22;8838;50.144;8.176;2023-02-11T15:36:01;5.90;99.90
17442;DHT22;8838;50.144;8.176;2023-02-11T15:38:28;5.90;99.90
17442;DHT22;8838;50.144;8.176;2023-02-11T15:40:57;5.90;99.90
17442;DHT22;8838;50.144;8.176;2023-02-11T15:43:39;5.90;99.90
17442;DHT22;8838;50.144;8.176;2023-02-11T15:46:08;5.90;99.90
17442;DHT22;8838;50.144;8.176;2023-02-11T15:48:37;5.90;99.90
17442;DHT22;8838;50.144;8.176;2023-02-11T15:51:17;5.90;99.90
17442;DHT22;8838;50.144;8.176;2023-02-11T15:53:48;6.00;99.90
17442;DHT22;8838;50.144;8.176;2023-02-11T15:56:22;5.90;99.90
17442;DHT22;8838;50.144;8.176;2023-02-11T15:58:52;5.90;99.90
17442;DHT22;8838;50.144;8.176;2023-02-11T16:01:28;5.90;99.90
17442;DHT22;8838;50.144;8.176;2023-02-11T16:03:56;5.90;99.90
17442;DHT22;8838;50.144;8.176;2023-02-11T16:06:25;5.90;99.90
17442;DHT22;8838;50.144;8.176;2023-02-11T16:08:58;5.90;99.90
17442;DHT22;8838;50.144;8.176;2023-02-11T16:11:30;5.90;99.90
17442;DHT22;8838;50.144;8.176;2023-02-11T16:14:01;5.90;99.90
17442;DHT22;8838;50.144;8.176;2023-02-11T16:16:30;5.90;99.90
17442;DHT22;8838;50.144;8.176;2023-02-11T16:18:59;5.80;99.90
17442;DHT22;8838;50.144;8.176;2023-02-11T16:21:32;5.80;99.90
17442;DHT22;8838;50.144;8.176;2023-02-11T16:24:05;5.70;99.90
17442;DHT22;8838;50.144;8.176;2023-02-11T16:26:35;5.70;99.90
17442;DHT22;8838;50.144;8.176;2023-02-11T16:29:06;5.70;99.90
17442;DHT22;8838;50.144;8.176;2023-02-11T16:31:34;5.70;99.90
17442;DHT22;8838;50.144;8.176;2023-02-11T16:34:02;5.70;99.90
17442;DHT22;8838;50.144;8.176;2023-02-11T16:36:32;5.60;99.90
17442;DHT22;8838;50.144;8.176;2023-02-11T16:38:59;5.70;99.90
17442;DHT22;8838;50.144;8.176;2023-02-11T16:41:26;5.70;99.90